Terminal Aerodrome Forecast
Issued by NWS Wilmington, NC

Home | Current Version | Previous Version | Text Only | Print | Product List | Glossary On
Versions: 1 2 3 4 5 6 7 8 9 10 11 12 13 14 15 16 17 18 19 20
000
FTUS42 KILM 312323
TAFMYR
TAF
KMYR 312323Z 0100/0124 VRB04KT P6SM VCSH FEW020 BKN100
      TEMPO 0100/0102 BKN018
     FM010700 03003KT P6SM VCSH SCT008 BKN100
     FM011300 36005KT P6SM VCSH FEW020 BKN050
     FM011800 21011G18KT P6SM VCTS SCT050CB SCT200
      AMD LTD TO CLD VIS AND WIND 0103/0110=

USA.gov is the U.S. government's official web portal to all federal, state and local government web resources and services.